Hovedside
METAR-TAF:

METAR-TAF

Lufthavner :

Siskiyou County Airport

Montague, California, USA

breddegrad: 41-46-53N, lengdegrad: 122-28-05W, høyde over havet: 807 m

Gjeldene værobservasjon

Denne rapporten ble laget for 42 minutter siden, klokken 18:53 UTC
Flau vind
Temperatur 10°C
Luftfuktighet 76%
Trykk 1022 hPa
Sikt: 16.1 km
Overskyet i en høyde av 6000 ft

METAR: KSIY 121853Z AUTO 00000KT 10SM OVC060 10/06 A3017 RMK AO2 SLP229 T01000061

Tid: 11:35 (19:35 UTC)


TAF: fraværende

Værobservasjoner og værvarsel for over 4000 flyplasser (METAR- og TAF-rapporter).

Tilgjengelige stasjoner er representert av de røde og gule prikkene på kartet.

Hold musepekeren over prikken for å se navnet på stasjonen.

Klikk så for å se værobservasjoner og -varsler.

For å forandre kartet kan du klikke på den grønne knappen med svart kryss for å zoome inn, på den grønne knappen med strek for å zoome ut, eller på de grønne pilene for å se tilstøtende kart.


METAR-TAF: